Time;durP1;ratioP1;P1;durP2;ratioP2;P2;SDS_P1;SDS_P2;PMS_P1;PMS_P2;Temp;Humidity;BMP_temperature;BMP_pressure;BME280_temperature;BME280_humidity;BME280_pressure;Samples;Min_cycle;Max_cycle;Signal;HPM_P1;HPM_P2
2023/10/25 00:01:11;;;;;;;18.02;5.72;;;13.40;99.90;;;;;;5051764;28;20048;-81
2023/10/25 00:03:37;;;;;;;367.38;48.60;;;13.50;99.90;;;;;;5053709;28;20059;-81
2023/10/25 00:06:03;;;;;;;100.80;13.55;;;13.40;99.90;;;;;;5071177;28;20488;-80
2023/10/25 00:08:28;;;;;;;6.05;4.40;;;13.40;99.90;;;;;;5058145;28;20028;-81
2023/10/25 00:11:08;;;;;;;56.17;10.63;;;13.50;99.90;;;;;;5063595;28;20124;-81
2023/10/25 00:13:34;;;;;;;54.65;9.80;;;13.40;99.90;;;;;;5061115;28;20042;-81
2023/10/25 00:16:00;;;;;;;55.60;9.27;;;13.30;99.90;;;;;;5071912;28;20028;-81
2023/10/25 00:18:27;;;;;;;6.90;4.88;;;13.40;99.90;;;;;;5059293;28;20036;-81
2023/10/25 00:20:53;;;;;;;6.53;4.03;;;13.40;99.90;;;;;;5050674;28;20025;-81
2023/10/25 00:23:20;;;;;;;6.05;4.97;;;13.40;99.90;;;;;;5059357;28;20094;-81
2023/10/25 00:25:50;;;;;;;5.68;4.22;;;13.40;99.90;;;;;;5061784;28;20087;-81
2023/10/25 00:28:17;;;;;;;8.60;4.68;;;13.40;99.90;;;;;;5068775;28;20040;-81
2023/10/25 00:30:45;;;;;;;10.77;5.15;;;13.40;99.90;;;;;;5068251;28;20027;-80
2023/10/25 00:33:11;;;;;;;5.50;3.90;;;13.50;99.90;;;;;;5069322;28;20555;-81
2023/10/25 00:35:37;;;;;;;6.60;4.78;;;13.40;99.90;;;;;;5064349;28;20032;-81
2023/10/25 00:38:03;;;;;;;6.68;4.47;;;13.50;99.90;;;;;;5067505;28;20033;-81
2023/10/25 00:40:28;;;;;;;9.25;4.38;;;13.50;99.90;;;;;;5065138;28;20139;-81
2023/10/25 00:43:18;;;;;;;361.50;36.50;;;13.50;99.90;;;;;;5068661;28;20028;-81
2023/10/25 00:45:52;;;;;;;59.17;8.90;;;13.40;99.90;;;;;;5067769;28;20040;-81
2023/10/25 00:48:18;;;;;;;6.13;4.15;;;13.40;99.90;;;;;;5062051;28;20624;-81
2023/10/25 00:50:44;;;;;;;41.65;8.45;;;13.40;99.90;;;;;;5062153;28;20116;-80
2023/10/25 00:53:10;;;;;;;6.00;4.57;;;13.40;99.90;;;;;;5054754;28;20029;-80
2023/10/25 00:55:35;;;;;;;8.98;4.90;;;13.40;99.90;;;;;;5062056;28;20036;-81
2023/10/25 00:58:01;;;;;;;6.63;4.95;;;13.50;99.90;;;;;;5068561;28;20028;-81
2023/10/25 01:00:27;;;;;;;5.88;4.15;;;13.50;99.90;;;;;;5064790;28;20029;-81
2023/10/25 01:02:53;;;;;;;6.10;4.32;;;13.50;99.90;;;;;;5068476;28;20465;-81
2023/10/25 01:05:19;;;;;;;72.82;12.75;;;13.40;99.90;;;;;;5058625;28;20470;-81
2023/10/25 01:07:45;;;;;;;7.43;4.40;;;13.40;99.90;;;;;;5066506;28;20024;-81
2023/10/25 01:10:10;;;;;;;6.15;4.50;;;13.40;99.90;;;;;;5055955;28;20035;-81
2023/10/25 01:12:36;;;;;;;5.93;4.20;;;13.50;99.90;;;;;;5051726;28;20028;-81
2023/10/25 01:15:02;;;;;;;9.15;4.90;;;13.50;99.90;;;;;;5057670;28;20033;-81
2023/10/25 01:17:28;;;;;;;7.55;4.70;;;13.50;99.90;;;;;;5051833;28;20549;-81
2023/10/25 01:19:54;;;;;;;7.13;4.43;;;13.50;99.90;;;;;;5056092;28;20551;-80
2023/10/25 01:22:24;;;;;;;7.78;4.35;;;13.50;99.90;;;;;;5063118;28;20028;-80
2023/10/25 01:24:50;;;;;;;49.70;9.00;;;13.40;99.90;;;;;;5057415;28;20052;-81
2023/10/25 01:27:15;;;;;;;95.53;12.43;;;13.40;99.90;;;;;;5066699;28;20482;-81
2023/10/25 01:29:41;;;;;;;134.88;16.70;;;13.40;99.90;;;;;;5066442;28;20037;-81
2023/10/25 01:32:07;;;;;;;104.15;14.10;;;13.40;99.90;;;;;;5056918;28;20040;-81
2023/10/25 01:34:33;;;;;;;501.75;53.95;;;13.40;99.90;;;;;;5062524;28;20089;-81
2023/10/25 01:36:58;;;;;;;5.88;4.43;;;13.40;99.90;;;;;;5054280;28;20394;-81
2023/10/25 01:39:24;;;;;;;7.57;4.43;;;13.40;99.90;;;;;;5060626;28;20036;-80
2023/10/25 01:41:49;;;;;;;5.20;3.95;;;13.40;99.90;;;;;;5056037;28;20063;-81
2023/10/25 01:44:15;;;;;;;6.18;4.63;;;13.50;99.90;;;;;;5054674;28;20064;-81
2023/10/25 01:46:41;;;;;;;5.13;4.20;;;13.50;99.90;;;;;;5054586;28;20393;-80
2023/10/25 01:49:07;;;;;;;7.25;5.03;;;13.60;99.90;;;;;;5062491;28;20025;-81
2023/10/25 01:51:33;;;;;;;6.30;4.30;;;13.50;99.90;;;;;;5064743;28;20099;-81
2023/10/25 01:53:58;;;;;;;6.32;4.50;;;13.50;99.90;;;;;;5056910;28;20230;-80
2023/10/25 01:56:24;;;;;;;6.32;5.13;;;13.50;99.90;;;;;;5053923;28;20108;-80
2023/10/25 01:58:50;;;;;;;6.78;4.53;;;13.50;99.90;;;;;;5060073;28;20041;-81
2023/10/25 02:01:15;;;;;;;7.35;4.25;;;13.50;99.90;;;;;;5059730;28;20529;-80
2023/10/25 02:03:41;;;;;;;6.20;4.50;;;13.50;99.90;;;;;;5061350;28;20033;-80
2023/10/25 02:06:25;;;;;;;6.43;4.72;;;13.50;99.90;;;;;;5063155;28;20027;-80
2023/10/25 02:08:50;;;;;;;5.63;4.07;;;13.50;99.90;;;;;;5049274;28;20116;-81
2023/10/25 02:11:16;;;;;;;7.85;4.65;;;13.50;99.90;;;;;;5048237;28;20147;-80
2023/10/25 02:13:41;;;;;;;7.45;4.68;;;13.50;99.90;;;;;;5054854;28;20078;-81
2023/10/25 02:16:15;;;;;;;5.32;4.28;;;13.50;99.90;;;;;;5054557;28;20029;-81
2023/10/25 02:18:40;;;;;;;5.40;4.30;;;13.40;99.90;;;;;;5052568;28;20396;-81
2023/10/25 02:21:06;;;;;;;6.72;4.47;;;13.50;99.90;;;;;;5055341;28;20107;-81
2023/10/25 02:23:32;;;;;;;5.85;4.50;;;13.60;99.90;;;;;;5049236;28;20116;-81
2023/10/25 02:25:58;;;;;;;6.80;4.40;;;13.50;99.90;;;;;;5059381;28;20090;-81
2023/10/25 02:28:23;;;;;;;9.18;4.90;;;13.50;99.90;;;;;;5050334;28;20067;-81
2023/10/25 02:30:49;;;;;;;5.78;4.25;;;13.50;99.90;;;;;;5060239;28;20074;-81
2023/10/25 02:33:14;;;;;;;6.57;4.93;;;13.60;99.90;;;;;;5057608;28;20063;-81
2023/10/25 02:35:40;;;;;;;6.05;4.18;;;13.60;99.90;;;;;;5054911;28;20521;-81
2023/10/25 02:38:06;;;;;;;5.63;4.20;;;13.60;99.90;;;;;;5055781;28;20040;-80
2023/10/25 02:40:31;;;;;;;6.68;4.75;;;13.60;99.90;;;;;;5058579;28;20124;-81
2023/10/25 02:42:57;;;;;;;6.45;4.28;;;13.60;99.90;;;;;;5052862;28;20744;-81
2023/10/25 02:45:23;;;;;;;7.13;4.72;;;13.60;99.90;;;;;;5061596;28;20029;-81
2023/10/25 02:47:48;;;;;;;6.47;4.70;;;13.60;99.90;;;;;;5058080;28;20032;-81
2023/10/25 02:50:15;;;;;;;8.55;4.68;;;13.60;99.90;;;;;;5067452;28;20036;-81
2023/10/25 02:52:44;;;;;;;7.40;5.10;;;13.50;99.90;;;;;;5065568;28;20025;-80
2023/10/25 02:55:09;;;;;;;6.05;4.90;;;13.60;99.90;;;;;;5056357;28;20401;-79
2023/10/25 02:57:35;;;;;;;6.60;4.90;;;13.60;99.90;;;;;;5065887;28;20032;-80
2023/10/25 03:00:01;;;;;;;6.72;5.15;;;13.60;99.90;;;;;;5051900;28;20075;-80
2023/10/25 03:02:26;;;;;;;6.28;4.65;;;13.60;99.90;;;;;;5054983;28;20086;-81
2023/10/25 03:04:52;;;;;;;6.00;4.97;;;13.70;99.90;;;;;;5057351;28;20123;-80
2023/10/25 03:07:18;;;;;;;6.25;4.78;;;13.70;99.90;;;;;;5055263;28;20024;-80
2023/10/25 03:09:43;;;;;;;5.97;4.47;;;13.70;99.90;;;;;;5051129;28;20028;-79
2023/10/25 03:12:09;;;;;;;5.88;4.65;;;13.60;99.90;;;;;;5053035;28;20037;-80
2023/10/25 03:14:35;;;;;;;5.90;4.70;;;13.60;99.90;;;;;;5055003;28;20032;-80
2023/10/25 03:17:01;;;;;;;8.07;5.10;;;13.60;99.90;;;;;;5051421;28;20024;-80
2023/10/25 03:19:29;;;;;;;7.35;5.32;;;13.70;99.90;;;;;;5047986;28;20072;-80
2023/10/25 03:21:56;;;;;;;6.03;4.82;;;13.60;99.90;;;;;;5064143;28;20028;-80
2023/10/25 03:24:21;;;;;;;7.03;5.32;;;13.70;99.90;;;;;;5053679;28;20064;-80
2023/10/25 03:26:47;;;;;;;6.03;4.90;;;13.60;99.90;;;;;;5057965;28;20682;-81
2023/10/25 03:29:13;;;;;;;9.35;5.90;;;13.60;99.90;;;;;;5061286;28;20033;-81
2023/10/25 03:31:39;;;;;;;8.25;5.07;;;13.60;99.90;;;;;;5059397;28;20024;-81
2023/10/25 03:34:05;;;;;;;6.80;4.40;;;13.60;99.90;;;;;;5063224;28;20708;-82
2023/10/25 03:36:31;;;;;;;5.88;4.97;;;13.60;99.90;;;;;;5057017;28;20029;-81
2023/10/25 03:38:57;;;;;;;7.15;4.80;;;13.60;99.90;;;;;;5060454;28;20028;-81
2023/10/25 03:41:22;;;;;;;6.28;4.72;;;13.50;99.90;;;;;;5063500;28;20389;-81
2023/10/25 03:43:48;;;;;;;6.45;4.57;;;13.50;99.90;;;;;;5062968;28;20033;-82
2023/10/25 03:46:15;;;;;;;6.80;4.60;;;13.50;99.90;;;;;;5065954;28;20024;-81
2023/10/25 03:48:40;;;;;;;7.32;5.05;;;13.50;99.90;;;;;;5064846;28;20016;-81
2023/10/25 03:51:07;;;;;;;5.72;4.53;;;13.50;99.90;;;;;;5069203;28;20111;-81
2023/10/25 03:53:35;;;;;;;5.85;4.55;;;13.50;99.90;;;;;;5063550;28;20654;-82
2023/10/25 03:56:01;;;;;;;5.78;4.40;;;13.50;99.90;;;;;;5054708;28;20025;-81
2023/10/25 03:58:27;;;;;;;7.13;5.00;;;13.50;99.90;;;;;;5064743;28;20077;-81
2023/10/25 04:01:02;;;;;;;5.82;4.60;;;13.60;99.90;;;;;;5068182;28;20032;-81
2023/10/25 04:03:29;;;;;;;6.22;4.75;;;13.50;99.90;;;;;;5060510;28;20974;-82
2023/10/25 04:05:55;;;;;;;6.30;4.97;;;13.50;99.90;;;;;;5074626;28;20092;-81
2023/10/25 04:08:21;;;;;;;7.80;5.82;;;13.50;99.90;;;;;;5082694;28;20028;-81
2023/10/25 04:10:55;;;;;;;6.38;5.18;;;13.50;99.90;;;;;;5051777;28;22832;-82
2023/10/25 04:13:21;;;;;;;8.75;5.55;;;13.50;99.90;;;;;;5059460;28;20524;-80
2023/10/25 04:16:01;;;;;;;7.03;5.30;;;13.50;99.90;;;;;;5056438;28;20033;-81
2023/10/25 04:18:28;;;;;;;6.47;5.50;;;13.50;99.90;;;;;;5052854;28;20039;-81
2023/10/25 04:20:55;;;;;;;6.63;5.32;;;13.50;99.90;;;;;;5060048;28;20051;-81
2023/10/25 04:23:21;;;;;;;7.25;5.40;;;13.50;99.90;;;;;;5052127;28;20561;-81
2023/10/25 04:25:48;;;;;;;6.68;5.50;;;13.50;99.90;;;;;;5053237;28;20368;-81
2023/10/25 04:28:14;;;;;;;6.32;4.70;;;13.50;99.90;;;;;;5059481;28;20029;-81
2023/10/25 04:30:40;;;;;;;6.85;5.28;;;13.50;99.90;;;;;;5055420;28;20040;-81
2023/10/25 04:33:06;;;;;;;7.03;5.55;;;13.50;99.90;;;;;;5060142;28;20117;-81
2023/10/25 04:35:32;;;;;;;9.20;5.57;;;13.50;99.90;;;;;;5064842;28;20070;-81
2023/10/25 04:37:58;;;;;;;7.18;5.45;;;13.50;99.90;;;;;;5057377;28;20029;-81
2023/10/25 04:40:24;;;;;;;7.38;6.20;;;13.50;99.90;;;;;;5059147;28;20047;-81
2023/10/25 04:42:50;;;;;;;7.45;6.10;;;13.40;99.90;;;;;;5053413;28;20033;-81
2023/10/25 04:45:17;;;;;;;8.57;7.25;;;13.50;99.90;;;;;;5060679;28;20020;-81
2023/10/25 04:47:42;;;;;;;8.55;5.47;;;13.50;99.90;;;;;;5056619;28;20089;-81
2023/10/25 04:50:09;;;;;;;8.27;5.55;;;13.50;99.90;;;;;;5045757;28;20480;-82
2023/10/25 04:52:34;;;;;;;7.10;5.88;;;13.50;99.90;;;;;;5053736;28;20032;-81
2023/10/25 04:55:00;;;;;;;6.25;5.32;;;13.50;99.90;;;;;;5057611;28;20031;-81
2023/10/25 04:57:26;;;;;;;7.53;5.47;;;13.50;99.90;;;;;;5048118;28;20024;-81
2023/10/25 04:59:52;;;;;;;6.55;5.35;;;13.50;99.90;;;;;;5056916;28;20497;-81
2023/10/25 05:02:19;;;;;;;180.77;24.90;;;13.50;99.90;;;;;;5047927;28;20029;-81
2023/10/25 05:04:45;;;;;;;10.35;6.53;;;13.40;99.90;;;;;;5060436;28;20500;-79
2023/10/25 05:07:11;;;;;;;91.50;15.43;;;13.40;99.90;;;;;;5050333;28;20079;-81
2023/10/25 05:09:37;;;;;;;7.50;6.22;;;13.40;99.90;;;;;;5054088;28;20052;-81
2023/10/25 05:12:06;;;;;;;6.65;5.43;;;13.40;99.90;;;;;;5049738;28;20052;-81
2023/10/25 05:14:33;;;;;;;7.30;5.50;;;13.40;99.90;;;;;;5053002;28;20043;-81
2023/10/25 05:17:00;;;;;;;7.03;5.95;;;13.50;99.90;;;;;;5062648;28;20089;-81
2023/10/25 05:19:26;;;;;;;7.28;5.55;;;13.50;99.90;;;;;;5061211;28;20574;-80
2023/10/25 05:21:54;;;;;;;9.25;6.47;;;13.60;99.90;;;;;;5060308;28;20032;-82
2023/10/25 05:24:20;;;;;;;8.60;6.47;;;13.60;99.90;;;;;;5055931;28;20105;-80
2023/10/25 05:26:46;;;;;;;9.45;7.32;;;13.50;99.90;;;;;;5046519;28;20548;-82
2023/10/25 05:29:12;;;;;;;8.93;6.72;;;13.60;99.90;;;;;;5060335;28;20456;-84
2023/10/25 05:31:45;;;;;;;8.57;7.07;;;13.60;99.90;;;;;;5057778;28;20032;-85
2023/10/25 05:34:11;;;;;;;10.20;7.10;;;13.60;99.90;;;;;;5056439;28;20055;-83
2023/10/25 05:36:38;;;;;;;9.73;7.03;;;13.50;99.90;;;;;;5046522;28;20074;-84
2023/10/25 05:39:05;;;;;;;21.38;7.78;;;13.50;99.90;;;;;;5048039;28;20040;-84
2023/10/25 05:41:36;;;;;;;133.13;22.35;;;13.50;99.90;;;;;;5058109;28;20031;-85
2023/10/25 05:44:13;;;;;;;521.45;51.78;;;13.50;99.90;;;;;;5061283;28;20032;-85
2023/10/25 05:46:38;;;;;;;201.50;24.90;;;13.50;99.90;;;;;;5058888;28;20115;-85
2023/10/25 05:49:04;;;;;;;227.95;27.08;;;13.40;99.90;;;;;;5058234;28;20506;-85
2023/10/25 05:51:31;;;;;;;679.22;66.35;;;13.40;99.90;;;;;;5058747;28;20452;-84
2023/10/25 05:53:57;;;;;;;408.92;41.78;;;13.40;99.90;;;;;;5048676;28;20052;-85
2023/10/25 05:56:26;;;;;;;342.55;36.65;;;13.40;99.90;;;;;;5054815;28;20496;-84
2023/10/25 05:58:53;;;;;;;331.70;36.50;;;13.30;99.90;;;;;;5061955;28;20090;-84
2023/10/25 06:01:24;;;;;;;555.83;56.47;;;13.40;99.90;;;;;;5061223;28;20048;-84
2023/10/25 06:03:52;;;;;;;43.05;11.00;;;13.40;99.90;;;;;;5055621;28;20063;-85
2023/10/25 06:06:19;;;;;;;12.95;8.23;;;13.30;99.90;;;;;;5052595;28;20680;-84
2023/10/25 06:08:45;;;;;;;12.57;7.88;;;13.40;99.90;;;;;;5064100;28;20033;-83
2023/10/25 06:11:11;;;;;;;11.52;8.20;;;13.40;99.90;;;;;;5054964;28;20056;-78
2023/10/25 06:13:37;;;;;;;9.70;7.70;;;13.40;99.90;;;;;;5060830;28;20347;-80
2023/10/25 06:16:03;;;;;;;8.93;7.20;;;13.40;99.90;;;;;;5060966;28;20097;-81
2023/10/25 06:18:29;;;;;;;9.93;7.72;;;13.40;99.90;;;;;;5052135;28;20028;-79
2023/10/25 06:20:54;;;;;;;8.65;6.75;;;13.40;99.90;;;;;;5050114;28;20029;-79
2023/10/25 06:23:20;;;;;;;9.07;6.82;;;13.40;99.90;;;;;;5054230;28;20025;-78
2023/10/25 06:25:46;;;;;;;10.10;7.53;;;13.40;99.90;;;;;;5051867;28;20033;-79
2023/10/25 06:28:11;;;;;;;9.38;7.55;;;13.40;99.90;;;;;;5054412;28;20041;-78
2023/10/25 06:30:37;;;;;;;10.18;7.32;;;13.50;99.90;;;;;;5041910;28;20100;-78
2023/10/25 06:33:04;;;;;;;11.40;7.57;;;13.50;99.90;;;;;;5051898;28;20101;-80
2023/10/25 06:35:30;;;;;;;23.60;15.73;;;13.60;99.90;;;;;;5048545;28;20044;-80
2023/10/25 06:37:56;;;;;;;13.25;10.25;;;13.60;99.90;;;;;;5044950;28;20062;-80
2023/10/25 06:40:22;;;;;;;14.70;9.38;;;13.60;99.90;;;;;;5053948;28;20146;-80
2023/10/25 06:42:48;;;;;;;11.95;8.80;;;13.60;99.90;;;;;;5053700;28;20039;-79
2023/10/25 06:45:15;;;;;;;12.52;7.88;;;13.60;99.90;;;;;;5054719;28;20041;-79
2023/10/25 06:47:42;;;;;;;11.07;8.23;;;13.60;99.90;;;;;;5061056;28;20604;-80
2023/10/25 06:50:11;;;;;;;13.52;9.15;;;13.70;99.90;;;;;;5051243;28;20421;-80
2023/10/25 06:52:37;;;;;;;13.40;10.07;;;13.70;99.90;;;;;;5047488;28;20410;-81
2023/10/25 06:55:03;;;;;;;17.02;10.98;;;13.70;99.90;;;;;;5047667;28;20033;-80
2023/10/25 06:57:29;;;;;;;14.15;10.40;;;13.70;99.90;;;;;;5060236;28;20103;-80
2023/10/25 06:59:55;;;;;;;16.23;10.45;;;13.80;99.90;;;;;;5050033;28;20132;-80
2023/10/25 07:02:37;;;;;;;11.43;9.25;;;13.80;99.90;;;;;;5049213;28;20119;-80
2023/10/25 07:05:12;;;;;;;13.05;9.05;;;13.90;99.90;;;;;;5050136;28;20825;-80
2023/10/25 07:07:39;;;;;;;11.25;8.13;;;13.90;99.90;;;;;;5056483;28;20078;-80
2023/10/25 07:10:06;;;;;;;14.73;10.15;;;14.00;99.90;;;;;;5060012;28;20029;-81
2023/10/25 07:12:32;;;;;;;14.80;9.13;;;14.00;99.90;;;;;;5060864;28;20159;-80
2023/10/25 07:14:58;;;;;;;321.75;172.48;;;14.10;99.90;;;;;;5061905;28;20033;-80
2023/10/25 07:17:24;;;;;;;170.82;89.70;;;14.20;99.90;;;;;;5057355;28;20522;-80
2023/10/25 07:19:50;;;;;;;133.35;73.30;;;14.20;99.90;;;;;;5064337;28;20539;-79
2023/10/25 07:22:15;;;;;;;36.55;20.75;;;14.10;99.90;;;;;;5050177;28;20024;-79
2023/10/25 07:24:41;;;;;;;16.75;9.45;;;14.10;99.90;;;;;;5063417;28;20115;-80
2023/10/25 07:27:07;;;;;;;13.60;10.10;;;14.10;99.90;;;;;;5062040;28;20197;-80
2023/10/25 07:29:36;;;;;;;12.07;9.57;;;14.00;99.90;;;;;;5048221;28;20141;-80
2023/10/25 07:32:05;;;;;;;15.35;11.20;;;14.10;99.90;;;;;;5059285;28;20817;-80
2023/10/25 07:34:31;;;;;;;16.98;11.10;;;14.10;99.90;;;;;;5064719;28;20040;-80
2023/10/25 07:36:56;;;;;;;15.95;11.57;;;14.10;99.90;;;;;;5064304;28;20041;-80
2023/10/25 07:39:22;;;;;;;23.83;21.38;;;14.10;99.90;;;;;;5049300;28;20488;-80
2023/10/25 07:41:48;;;;;;;48.30;14.98;;;14.10;99.90;;;;;;5051363;28;20170;-81
2023/10/25 07:44:14;;;;;;;11.23;8.57;;;14.10;99.90;;;;;;5045432;28;20036;-80
2023/10/25 07:46:40;;;;;;;11.88;8.98;;;14.10;99.90;;;;;;5052664;28;20091;-80
2023/10/25 07:49:06;;;;;;;15.30;9.70;;;14.00;99.90;;;;;;5062054;28;20057;-80
2023/10/25 07:51:31;;;;;;;11.82;9.40;;;14.00;99.90;;;;;;5065175;28;20041;-80
2023/10/25 07:53:57;;;;;;;17.17;11.52;;;14.00;99.90;;;;;;5057525;28;20033;-80
2023/10/25 07:56:23;;;;;;;15.27;10.85;;;13.90;99.90;;;;;;5055610;28;20029;-80
2023/10/25 07:58:50;;;;;;;12.93;10.27;;;14.00;99.90;;;;;;5062575;28;20485;-80
2023/10/25 08:01:15;;;;;;;14.18;10.88;;;14.10;99.90;;;;;;5054294;28;20186;-80
2023/10/25 08:03:41;;;;;;;14.43;10.25;;;14.10;99.90;;;;;;5058192;28;20698;-79
2023/10/25 08:06:07;;;;;;;12.38;9.13;;;14.20;99.90;;;;;;5051669;28;20078;-79
2023/10/25 08:08:33;;;;;;;11.55;8.60;;;14.20;99.90;;;;;;5058753;28;20059;-79
2023/10/25 08:11:04;;;;;;;11.35;8.40;;;14.30;99.90;;;;;;5059185;28;20077;-79
2023/10/25 08:13:31;;;;;;;11.40;9.23;;;14.40;99.90;;;;;;5056512;28;20482;-80
2023/10/25 08:15:58;;;;;;;11.13;8.13;;;14.50;99.90;;;;;;5064229;28;20027;-80
2023/10/25 08:18:25;;;;;;;11.15;8.65;;;14.60;99.90;;;;;;5063622;28;20013;-82
2023/10/25 08:20:51;;;;;;;10.50;8.13;;;14.70;99.90;;;;;;5062606;28;20028;-81
2023/10/25 08:23:18;;;;;;;15.23;11.13;;;14.70;99.90;;;;;;5062370;28;21136;-80
2023/10/25 08:25:44;;;;;;;12.48;10.68;;;14.50;99.90;;;;;;5077776;28;20043;-81
2023/10/25 08:28:10;;;;;;;10.23;7.88;;;14.70;99.90;;;;;;5069421;28;20040;-81
2023/10/25 08:30:36;;;;;;;11.88;7.97;;;14.70;99.90;;;;;;5061256;28;20115;-82
2023/10/25 08:33:01;;;;;;;9.00;7.10;;;14.70;99.90;;;;;;5053801;28;20430;-80
2023/10/25 08:35:27;;;;;;;9.75;7.72;;;14.70;99.90;;;;;;5060488;28;20669;-83
2023/10/25 08:37:53;;;;;;;9.80;8.18;;;14.90;99.90;;;;;;5048290;28;20043;-81
2023/10/25 08:40:19;;;;;;;8.90;7.13;;;15.00;99.90;;;;;;5056811;28;20036;-82
2023/10/25 08:42:45;;;;;;;10.05;7.13;;;14.90;99.90;;;;;;5065329;28;20506;-82
2023/10/25 08:45:14;;;;;;;8.68;6.97;;;14.90;99.90;;;;;;5063790;28;20060;-81
2023/10/25 08:47:41;;;;;;;9.13;7.25;;;14.90;99.90;;;;;;5064146;28;20044;-82
2023/10/25 08:50:07;;;;;;;10.38;7.47;;;15.10;99.90;;;;;;5062334;28;20547;-85
2023/10/25 08:52:39;;;;;;;10.05;7.93;;;15.00;99.90;;;;;;5059472;28;20076;-81
2023/10/25 08:55:11;;;;;;;10.30;7.05;;;14.90;99.90;;;;;;5053962;28;20121;-82
2023/10/25 08:57:40;;;;;;;12.45;9.00;;;14.70;99.90;;;;;;5062760;28;20031;-81
2023/10/25 09:00:07;;;;;;;10.80;8.27;;;14.80;99.90;;;;;;5064531;28;20083;-80
2023/10/25 09:02:37;;;;;;;10.70;8.45;;;14.90;99.90;;;;;;5064566;28;20097;-84
2023/10/25 09:05:03;;;;;;;11.48;8.20;;;14.70;99.90;;;;;;5057057;28;20036;-80
2023/10/25 09:07:36;;;;;;;11.90;8.68;;;14.70;99.90;;;;;;5059419;28;20174;-81
2023/10/25 09:10:15;;;;;;;10.03;8.47;;;14.60;99.90;;;;;;5061290;28;20517;-81
2023/10/25 09:12:41;;;;;;;13.40;8.88;;;14.60;99.90;;;;;;5059359;28;20093;-81
2023/10/25 09:15:08;;;;;;;12.27;7.45;;;14.60;99.90;;;;;;5058811;28;20390;-81
2023/10/25 09:17:35;;;;;;;8.90;7.88;;;14.70;99.90;;;;;;5063518;28;20120;-80
2023/10/25 09:20:01;;;;;;;8.10;6.70;;;14.80;99.90;;;;;;5064203;28;20043;-81
2023/10/25 09:22:29;;;;;;;11.07;7.43;;;14.70;99.90;;;;;;5060017;28;20037;-80
2023/10/25 09:24:58;;;;;;;8.73;6.18;;;14.80;99.90;;;;;;5055741;28;20025;-81
2023/10/25 09:27:24;;;;;;;11.80;6.63;;;14.90;99.90;;;;;;5063407;28;20031;-80
2023/10/25 09:29:50;;;;;;;9.20;6.15;;;14.80;99.90;;;;;;5061931;28;20029;-80
2023/10/25 09:32:20;;;;;;;8.80;6.03;;;14.90;99.90;;;;;;5058277;28;20044;-81
2023/10/25 09:34:49;;;;;;;10.80;6.55;;;15.00;99.90;;;;;;5051704;28;20510;-80
2023/10/25 09:37:15;;;;;;;7.75;5.38;;;15.00;99.90;;;;;;5064968;28;20134;-81
2023/10/25 09:39:41;;;;;;;9.23;6.13;;;15.00;99.90;;;;;;5056700;28;20037;-80
2023/10/25 09:42:12;;;;;;;6.97;5.32;;;15.00;99.90;;;;;;5062450;28;20036;-80
2023/10/25 09:44:53;;;;;;;8.77;5.68;;;14.90;99.90;;;;;;5058919;28;20036;-80
2023/10/25 09:47:19;;;;;;;9.20;4.78;;;14.90;99.90;;;;;;5066011;28;20028;-80
2023/10/25 09:49:52;;;;;;;8.70;5.85;;;14.90;99.90;;;;;;5061396;28;20033;-80
2023/10/25 09:52:26;;;;;;;6.85;4.55;;;14.80;99.90;;;;;;5063440;28;20048;-80
2023/10/25 09:55:02;;;;;;;7.22;4.43;;;14.90;99.90;;;;;;5066277;28;20036;-80
2023/10/25 09:57:30;;;;;;;6.13;4.97;;;14.90;99.90;;;;;;5062437;28;20099;-80
2023/10/25 09:59:56;;;;;;;7.55;4.28;;;15.00;99.90;;;;;;5058840;28;20101;-80
2023/10/25 10:02:28;;;;;;;7.07;3.83;;;15.10;99.90;;;;;;5061184;28;20535;-80
2023/10/25 10:04:59;;;;;;;6.72;4.25;;;15.20;99.90;;;;;;5056193;28;20028;-80
2023/10/25 10:07:42;;;;;;;9.00;5.68;;;15.20;99.90;;;;;;5060679;28;20033;-81
2023/10/25 10:10:29;;;;;;;5.65;3.83;;;15.30;99.90;;;;;;5062290;28;20501;-81
2023/10/25 10:12:54;;;;;;;6.85;4.43;;;15.50;99.90;;;;;;5064204;28;20037;-81
2023/10/25 10:15:44;;;;;;;6.88;4.15;;;15.40;99.90;;;;;;5061775;28;20031;-80
2023/10/25 10:18:11;;;;;;;6.53;4.38;;;15.40;99.90;;;;;;5052489;28;20037;-80
2023/10/25 10:20:36;;;;;;;6.80;3.78;;;15.60;99.90;;;;;;5054038;28;20044;-81
2023/10/25 10:23:07;;;;;;;8.85;3.40;;;15.70;99.90;;;;;;5057101;28;20033;-80
2023/10/25 10:25:47;;;;;;;8.32;4.22;;;15.80;99.90;;;;;;5065109;28;20437;-80
2023/10/25 10:28:14;;;;;;;5.90;3.60;;;15.90;99.90;;;;;;5061315;28;20033;-80
2023/10/25 10:30:40;;;;;;;8.75;4.18;;;15.90;99.90;;;;;;5053765;28;20032;-81
2023/10/25 10:33:11;;;;;;;5.80;2.80;;;16.00;99.90;;;;;;5053158;28;20056;-79
2023/10/25 10:36:00;;;;;;;5.25;2.80;;;16.20;99.90;;;;;;5062432;28;20024;-81
2023/10/25 10:38:26;;;;;;;4.75;2.92;;;16.10;99.90;;;;;;5065344;28;20052;-80
2023/10/25 10:40:52;;;;;;;4.38;2.65;;;16.20;99.90;;;;;;5061150;28;20036;-79
2023/10/25 10:43:20;;;;;;;5.70;2.10;;;16.30;99.90;;;;;;5062931;28;20086;-79
2023/10/25 10:45:52;;;;;;;4.25;2.58;;;16.40;99.90;;;;;;5057028;28;20040;-79
2023/10/25 10:48:22;;;;;;;4.40;2.75;;;16.40;99.90;;;;;;5053440;28;20052;-80
2023/10/25 10:50:49;;;;;;;6.22;2.55;;;16.40;99.90;;;;;;5059848;28;20119;-80
2023/10/25 10:53:15;;;;;;;4.03;2.30;;;16.30;99.90;;;;;;5063764;28;20025;-79
2023/10/25 10:55:41;;;;;;;4.05;2.17;;;16.20;99.90;;;;;;5053160;28;20543;-81
2023/10/25 10:58:07;;;;;;;7.72;3.10;;;16.40;99.90;;;;;;5053155;28;20040;-80
2023/10/25 11:00:33;;;;;;;5.40;2.58;;;16.30;99.90;;;;;;5057732;28;20106;-79
2023/10/25 11:03:04;;;;;;;3.47;1.95;;;16.10;99.90;;;;;;5063351;28;20051;-80
2023/10/25 11:05:31;;;;;;;3.25;1.90;;;16.10;99.90;;;;;;5063095;28;20116;-79
2023/10/25 11:07:57;;;;;;;4.85;1.55;;;15.90;99.90;;;;;;5064186;28;20086;-80
2023/10/25 11:10:23;;;;;;;3.78;1.48;;;15.90;99.90;;;;;;5054177;28;20033;-79
2023/10/25 11:12:49;;;;;;;4.57;1.40;;;15.90;99.90;;;;;;5056440;28;20108;-79
2023/10/25 11:15:16;;;;;;;6.03;2.00;;;16.00;99.90;;;;;;5060780;28;20029;-79
2023/10/25 11:17:42;;;;;;;3.58;1.92;;;16.10;99.90;;;;;;5050988;28;20025;-79
2023/10/25 11:20:07;;;;;;;3.10;1.45;;;16.20;99.90;;;;;;5048770;28;20037;-79
2023/10/25 11:22:36;;;;;;;4.10;1.52;;;16.30;99.90;;;;;;5053100;28;20032;-78
2023/10/25 11:25:11;;;;;;;2.92;1.23;;;16.60;99.90;;;;;;5053606;28;20024;-78
2023/10/25 11:27:37;;;;;;;3.08;1.63;;;16.40;99.90;;;;;;5050120;28;20032;-79
2023/10/25 11:30:05;;;;;;;4.18;1.65;;;16.40;99.90;;;;;;5044231;28;20033;-78
2023/10/25 11:32:34;;;;;;;3.13;1.55;;;16.50;99.90;;;;;;5057675;28;20064;-77
2023/10/25 11:35:02;;;;;;;3.03;1.10;;;16.60;99.90;;;;;;5055606;28;20039;-80
2023/10/25 11:37:43;;;;;;;4.75;1.30;;;16.70;99.90;;;;;;5056085;28;20115;-80
2023/10/25 11:40:09;;;;;;;3.35;1.30;;;16.60;99.90;;;;;;5054819;28;20101;-80
2023/10/25 11:42:35;;;;;;;3.90;1.30;;;16.80;99.90;;;;;;5054531;28;20051;-80
2023/10/25 11:45:04;;;;;;;5.22;1.52;;;16.90;99.90;;;;;;5054152;28;20036;-79
2023/10/25 11:47:32;;;;;;;3.83;1.20;;;16.70;99.90;;;;;;5054899;28;20090;-79
2023/10/25 11:50:01;;;;;;;2.72;1.30;;;16.40;99.90;;;;;;5059976;28;20040;-79
2023/10/25 11:52:28;;;;;;;3.95;1.20;;;16.30;99.90;;;;;;5062614;28;20029;-79
2023/10/25 11:54:55;;;;;;;2.10;1.08;;;16.20;99.90;;;;;;5064894;28;20035;-79
2023/10/25 11:57:32;;;;;;;2.70;1.05;;;16.30;99.90;;;;;;5058362;28;20079;-79
2023/10/25 11:59:58;;;;;;;2.67;1.25;;;16.10;99.90;;;;;;5058501;28;20044;-77
2023/10/25 12:02:26;;;;;;;2.17;1.00;;;16.10;99.90;;;;;;5060034;28;20025;-78
2023/10/25 12:04:55;;;;;;;2.63;0.93;;;16.20;99.90;;;;;;5054694;28;20060;-78
2023/10/25 12:07:22;;;;;;;3.63;1.10;;;16.20;99.90;;;;;;5056738;28;20096;-77
2023/10/25 12:09:48;;;;;;;3.63;1.50;;;16.30;99.90;;;;;;5054712;28;20032;-78
2023/10/25 12:12:14;;;;;;;4.57;1.55;;;16.40;99.90;;;;;;5053049;28;20419;-77
2023/10/25 12:14:40;;;;;;;10.32;2.97;;;16.50;99.90;;;;;;5052569;28;20021;-79
2023/10/25 12:17:06;;;;;;;3.33;1.55;;;16.80;99.90;;;;;;5058568;28;20033;-79
2023/10/25 12:19:32;;;;;;;28.23;11.02;;;16.80;99.90;;;;;;5064043;28;20059;-78
2023/10/25 12:21:58;;;;;;;7.20;3.45;;;17.00;99.90;;;;;;5051172;28;20033;-78
2023/10/25 12:24:26;;;;;;;11.25;6.53;;;16.90;99.90;;;;;;5055142;28;20494;-78
2023/10/25 12:26:53;;;;;;;7.68;3.50;;;17.00;99.90;;;;;;5052475;28;20028;-78
2023/10/25 12:29:19;;;;;;;7.00;3.50;;;17.00;99.90;;;;;;5057879;28;20094;-78
2023/10/25 12:31:45;;;;;;;5.25;2.10;;;17.20;99.90;;;;;;5063125;28;20463;-78
2023/10/25 12:34:12;;;;;;;3.55;1.40;;;17.10;99.90;;;;;;5052285;28;20053;-79
2023/10/25 12:36:37;;;;;;;5.82;1.38;;;17.10;99.90;;;;;;5045372;28;20071;-78
2023/10/25 12:39:03;;;;;;;2.13;1.10;;;17.20;99.90;;;;;;5052741;28;20124;-78
2023/10/25 12:41:29;;;;;;;5.55;1.40;;;17.10;99.90;;;;;;5066397;28;20071;-78